sensor_id;sensor_type;location;lat;lon;timestamp;pressure;altitude;pressure_sealevel;temperature;humidity
38806;BME280;25635;51.146;17.162;2022-12-11T00:00:44;99265.23;;;-0.50;89.93
38806;BME280;25635;51.146;17.162;2022-12-11T00:03:14;99262.16;;;-0.52;89.95
38806;BME280;25635;51.146;17.162;2022-12-11T00:05:42;99262.62;;;-0.51;90.26
38806;BME280;25635;51.146;17.162;2022-12-11T00:08:10;99262.58;;;-0.53;90.00
38806;BME280;25635;51.146;17.162;2022-12-11T00:10:37;99254.87;;;-0.53;89.94
38806;BME280;25635;51.146;17.162;2022-12-11T00:13:03;99259.58;;;-0.52;89.88
38806;BME280;25635;51.146;17.162;2022-12-11T00:15:30;99257.01;;;-0.54;89.89
38806;BME280;25635;51.146;17.162;2022-12-11T00:17:56;99260.44;;;-0.53;90.04
38806;BME280;25635;51.146;17.162;2022-12-11T00:20:22;99257.83;;;-0.55;89.98
38806;BME280;25635;51.146;17.162;2022-12-11T00:22:48;99264.67;;;-0.55;90.05
38806;BME280;25635;51.146;17.162;2022-12-11T00:25:14;99261.24;;;-0.56;90.02
38806;BME280;25635;51.146;17.162;2022-12-11T00:27:40;99260.86;;;-0.54;90.02
38806;BME280;25635;51.146;17.162;2022-12-11T00:30:08;99257.83;;;-0.55;90.05
38806;BME280;25635;51.146;17.162;2022-12-11T00:32:34;99261.24;;;-0.56;89.98
38806;BME280;25635;51.146;17.162;2022-12-11T00:35:00;99266.80;;;-0.56;90.08
38806;BME280;25635;51.146;17.162;2022-12-11T00:37:27;99265.48;;;-0.58;90.17
38806;BME280;25635;51.146;17.162;2022-12-11T00:39:53;99272.33;;;-0.58;90.20
38806;BME280;25635;51.146;17.162;2022-12-11T00:42:19;99274.00;;;-0.59;90.10
38806;BME280;25635;51.146;17.162;2022-12-11T00:44:45;99278.76;;;-0.57;89.96
38806;BME280;25635;51.146;17.162;2022-12-11T00:47:12;99277.94;;;-0.56;90.05
38806;BME280;25635;51.146;17.162;2022-12-11T00:49:38;99280.94;;;-0.56;89.96
38806;BME280;25635;51.146;17.162;2022-12-11T00:52:04;99271.52;;;-0.56;90.10
38806;BME280;25635;51.146;17.162;2022-12-11T00:54:30;99271.05;;;-0.57;89.96
38806;BME280;25635;51.146;17.162;2022-12-11T00:56:56;99269.77;;;-0.57;89.98
38806;BME280;25635;51.146;17.162;2022-12-11T00:59:23;99271.05;;;-0.57;90.00
38806;BME280;25635;51.146;17.162;2022-12-11T01:01:49;99258.72;;;-0.54;90.03
38806;BME280;25635;51.146;17.162;2022-12-11T01:04:15;99261.72;;;-0.53;89.96
38806;BME280;25635;51.146;17.162;2022-12-11T01:06:41;99260.48;;;-0.52;89.85
38806;BME280;25635;51.146;17.162;2022-12-11T01:09:07;99262.62;;;-0.51;89.87
38806;BME280;25635;51.146;17.162;2022-12-11T01:11:51;99265.58;;;-0.53;89.92
38806;BME280;25635;51.146;17.162;2022-12-11T01:14:17;99268.56;;;-0.54;90.00
38806;BME280;25635;51.146;17.162;2022-12-11T01:16:43;99271.56;;;-0.54;90.07
38806;BME280;25635;51.146;17.162;2022-12-11T01:19:10;99271.04;;;-0.58;90.05
38806;BME280;25635;51.146;17.162;2022-12-11T01:21:36;99278.70;;;-0.60;90.07
38806;BME280;25635;51.146;17.162;2022-12-11T01:24:02;99271.81;;;-0.61;90.32
38806;BME280;25635;51.146;17.162;2022-12-11T01:26:29;99279.05;;;-0.64;90.51
38806;BME280;25635;51.146;17.162;2022-12-11T01:28:55;99273.47;;;-0.65;90.42
38806;BME280;25635;51.146;17.162;2022-12-11T01:31:21;99280.75;;;-0.64;90.29
38806;BME280;25635;51.146;17.162;2022-12-11T01:33:47;99276.05;;;-0.63;90.26
38806;BME280;25635;51.146;17.162;2022-12-11T01:36:18;99276.47;;;-0.64;90.51
38806;BME280;25635;51.146;17.162;2022-12-11T01:38:46;99282.90;;;-0.64;90.29
38806;BME280;25635;51.146;17.162;2022-12-11T01:41:13;99278.14;;;-0.66;90.45
38806;BME280;25635;51.146;17.162;2022-12-11T01:44:03;99278.61;;;-0.65;90.37
38806;BME280;25635;51.146;17.162;2022-12-11T01:46:32;99268.73;;;-0.65;90.36
38806;BME280;25635;51.146;17.162;2022-12-11T01:49:02;99268.34;;;-0.65;90.43
38806;BME280;25635;51.146;17.162;2022-12-11T01:51:32;99268.72;;;-0.67;90.28
38806;BME280;25635;51.146;17.162;2022-12-11T01:54:05;99267.01;;;-0.66;90.27
38806;BME280;25635;51.146;17.162;2022-12-11T01:56:35;99266.16;;;-0.65;90.39
38806;BME280;25635;51.146;17.162;2022-12-11T01:59:05;99268.73;;;-0.65;90.24
38806;BME280;25635;51.146;17.162;2022-12-11T02:01:44;99264.02;;;-0.66;90.28
38806;BME280;25635;51.146;17.162;2022-12-11T02:04:19;99257.21;;;-0.64;90.37
38806;BME280;25635;51.146;17.162;2022-12-11T02:06:48;99247.02;;;-0.60;90.21
38806;BME280;25635;51.146;17.162;2022-12-11T02:09:38;99241.89;;;-0.59;90.12
38806;BME280;25635;51.146;17.162;2022-12-11T02:17:43;99225.53;;;-0.64;90.10
38806;BME280;25635;51.146;17.162;2022-12-11T02:26:01;99220.27;;;-0.70;90.09
38806;BME280;25635;51.146;17.162;2022-12-11T02:31:22;99217.22;;;-0.73;90.31
38806;BME280;25635;51.146;17.162;2022-12-11T02:36:50;99213.72;;;-0.76;90.27
38806;BME280;25635;51.146;17.162;2022-12-11T02:39:19;99213.66;;;-0.79;90.24
38806;BME280;25635;51.146;17.162;2022-12-11T02:41:49;99223.51;;;-0.79;90.26
38806;BME280;25635;51.146;17.162;2022-12-11T02:44:19;99221.76;;;-0.80;90.23
38806;BME280;25635;51.146;17.162;2022-12-11T02:46:48;99217.89;;;-0.82;90.26
38806;BME280;25635;51.146;17.162;2022-12-11T02:49:15;99221.33;;;-0.81;90.40
38806;BME280;25635;51.146;17.162;2022-12-11T02:51:42;99232.92;;;-0.79;90.41
38806;BME280;25635;51.146;17.162;2022-12-11T02:54:18;99233.69;;;-0.82;90.21
38806;BME280;25635;51.146;17.162;2022-12-11T02:56:55;99231.55;;;-0.83;90.30
38806;BME280;25635;51.146;17.162;2022-12-11T02:59:31;99229.84;;;-0.82;90.27
38806;BME280;25635;51.146;17.162;2022-12-11T03:02:00;99231.07;;;-0.85;90.26
38806;BME280;25635;51.146;17.162;2022-12-11T03:04:28;99234.92;;;-0.85;90.41
38806;BME280;25635;51.146;17.162;2022-12-11T03:06:57;99237.88;;;-0.87;90.29
38806;BME280;25635;51.146;17.162;2022-12-11T03:09:27;99230.98;;;-0.88;90.33
38806;BME280;25635;51.146;17.162;2022-12-11T03:11:54;99230.59;;;-0.88;90.41
38806;BME280;25635;51.146;17.162;2022-12-11T03:14:20;99230.21;;;-0.86;90.38
38806;BME280;25635;51.146;17.162;2022-12-11T03:16:55;99234.98;;;-0.82;90.33
38806;BME280;25635;51.146;17.162;2022-12-11T03:22:16;99237.92;;;-0.84;90.27
38806;BME280;25635;51.146;17.162;2022-12-11T03:24:54;99239.20;;;-0.86;90.21
38806;BME280;25635;51.146;17.162;2022-12-11T03:27:32;99242.62;;;-0.85;90.25
38806;BME280;25635;51.146;17.162;2022-12-11T03:30:06;99237.02;;;-0.86;90.25
38806;BME280;25635;51.146;17.162;2022-12-11T03:35:20;99239.58;;;-0.88;90.31
38806;BME280;25635;51.146;17.162;2022-12-11T03:37:49;99236.55;;;-0.89;90.33
38806;BME280;25635;51.146;17.162;2022-12-11T03:40:20;99241.25;;;-0.90;90.31
38806;BME280;25635;51.146;17.162;2022-12-11T03:42:50;99239.92;;;-0.91;90.26
38806;BME280;25635;51.146;17.162;2022-12-11T03:45:19;99243.29;;;-0.94;90.42
38806;BME280;25635;51.146;17.162;2022-12-11T03:47:47;99239.83;;;-0.94;90.41
38806;BME280;25635;51.146;17.162;2022-12-11T03:50:16;99235.08;;;-0.96;90.62
38806;BME280;25635;51.146;17.162;2022-12-11T03:52:45;99241.48;;;-0.98;90.63
38806;BME280;25635;51.146;17.162;2022-12-11T03:55:14;99244.05;;;-0.98;90.67
38806;BME280;25635;51.146;17.162;2022-12-11T03:57:42;99230.70;;;-1.00;90.79
38806;BME280;25635;51.146;17.162;2022-12-11T04:00:11;99239.69;;;-1.00;90.91
38806;BME280;25635;51.146;17.162;2022-12-11T04:02:42;99234.55;;;-1.02;90.79
38806;BME280;25635;51.146;17.162;2022-12-11T04:05:10;99228.90;;;-1.05;90.80
38806;BME280;25635;51.146;17.162;2022-12-11T04:07:36;99221.95;;;-1.10;90.92
38806;BME280;25635;51.146;17.162;2022-12-11T04:10:03;99219.30;;;-1.13;90.87
38806;BME280;25635;51.146;17.162;2022-12-11T04:12:30;99211.59;;;-1.15;90.96
38806;BME280;25635;51.146;17.162;2022-12-11T04:14:57;99214.92;;;-1.17;90.97
38806;BME280;25635;51.146;17.162;2022-12-11T04:17:31;99212.34;;;-1.19;91.08
38806;BME280;25635;51.146;17.162;2022-12-11T04:20:18;99219.58;;;-1.20;90.95
38806;BME280;25635;51.146;17.162;2022-12-11T04:23:11;99218.25;;;-1.22;91.16
38806;BME280;25635;51.146;17.162;2022-12-11T04:26:09;99217.81;;;-1.23;90.81
38806;BME280;25635;51.146;17.162;2022-12-11T04:28:44;99210.48;;;-1.25;90.94
38806;BME280;25635;51.146;17.162;2022-12-11T04:31:14;99214.39;;;-1.22;91.14
38806;BME280;25635;51.146;17.162;2022-12-11T04:33:42;99212.25;;;-1.22;90.82
38806;BME280;25635;51.146;17.162;2022-12-11T04:36:09;99208.83;;;-1.23;90.79
38806;BME280;25635;51.146;17.162;2022-12-11T04:38:36;99204.94;;;-1.24;90.72
38806;BME280;25635;51.146;17.162;2022-12-11T04:41:06;99199.38;;;-1.25;90.73
38806;BME280;25635;51.146;17.162;2022-12-11T04:43:36;99203.23;;;-1.24;90.79
38806;BME280;25635;51.146;17.162;2022-12-11T04:46:04;99204.55;;;-1.22;90.64
38806;BME280;25635;51.146;17.162;2022-12-11T04:48:32;99196.86;;;-1.22;90.39
38806;BME280;25635;51.146;17.162;2022-12-11T04:50:59;99184.89;;;-1.22;90.40
38806;BME280;25635;51.146;17.162;2022-12-11T04:53:26;99182.80;;;-1.20;90.31
38806;BME280;25635;51.146;17.162;2022-12-11T04:55:53;99192.63;;;-1.20;90.17
38806;BME280;25635;51.146;17.162;2022-12-11T04:58:19;99192.59;;;-1.22;90.10
38806;BME280;25635;51.146;17.162;2022-12-11T05:00:46;99195.24;;;-1.18;90.25
38806;BME280;25635;51.146;17.162;2022-12-11T05:03:15;99198.24;;;-1.17;90.27
38806;BME280;25635;51.146;17.162;2022-12-11T05:05:47;99193.58;;;-1.16;89.99
38806;BME280;25635;51.146;17.162;2022-12-11T05:08:16;99194.00;;;-1.17;89.96
38806;BME280;25635;51.146;17.162;2022-12-11T05:10:43;99187.64;;;-1.14;90.20
38806;BME280;25635;51.146;17.162;2022-12-11T05:13:09;99191.53;;;-1.12;90.00
38806;BME280;25635;51.146;17.162;2022-12-11T05:15:38;99193.30;;;-1.10;89.80
38806;BME280;25635;51.146;17.162;2022-12-11T05:18:05;99190.73;;;-1.10;89.68
38806;BME280;25635;51.146;17.162;2022-12-11T05:20:31;99189.02;;;-1.11;89.52
38806;BME280;25635;51.146;17.162;2022-12-11T05:22:57;99186.36;;;-1.14;89.56
38806;BME280;25635;51.146;17.162;2022-12-11T05:25:23;99181.23;;;-1.14;89.50
38806;BME280;25635;51.146;17.162;2022-12-11T05:27:49;99179.94;;;-1.14;89.58
38806;BME280;25635;51.146;17.162;2022-12-11T05:30:18;99179.04;;;-1.16;89.41
38806;BME280;25635;51.146;17.162;2022-12-11T05:32:45;99179.89;;;-1.17;89.28
38806;BME280;25635;51.146;17.162;2022-12-11T05:35:14;99184.94;;;-1.20;89.20
38806;BME280;25635;51.146;17.162;2022-12-11T05:37:46;99182.31;;;-1.23;89.13
38806;BME280;25635;51.146;17.162;2022-12-11T05:40:17;99183.55;;;-1.25;88.94
38806;BME280;25635;51.146;17.162;2022-12-11T05:42:43;99182.60;;;-1.28;88.83
38806;BME280;25635;51.146;17.162;2022-12-11T05:45:10;99182.17;;;-1.29;88.76
38806;BME280;25635;51.146;17.162;2022-12-11T05:47:36;99178.70;;;-1.31;89.02
38806;BME280;25635;51.146;17.162;2022-12-11T05:50:02;99177.86;;;-1.30;89.22
38806;BME280;25635;51.146;17.162;2022-12-11T05:52:30;99181.75;;;-1.29;89.22
38806;BME280;25635;51.146;17.162;2022-12-11T05:54:57;99176.15;;;-1.30;89.07
38806;BME280;25635;51.146;17.162;2022-12-11T05:57:23;99180.42;;;-1.30;88.86
38806;BME280;25635;51.146;17.162;2022-12-11T05:59:49;99178.70;;;-1.31;88.87
38806;BME280;25635;51.146;17.162;2022-12-11T06:02:15;99178.70;;;-1.31;88.67
38806;BME280;25635;51.146;17.162;2022-12-11T06:04:41;99185.11;;;-1.31;88.80
38806;BME280;25635;51.146;17.162;2022-12-11T06:07:07;99179.52;;;-1.32;88.74
38806;BME280;25635;51.146;17.162;2022-12-11T06:09:34;99189.39;;;-1.32;88.80
38806;BME280;25635;51.146;17.162;2022-12-11T06:12:00;99192.72;;;-1.34;88.42
38806;BME280;25635;51.146;17.162;2022-12-11T06:14:26;99196.09;;;-1.37;88.58
38806;BME280;25635;51.146;17.162;2022-12-11T06:16:52;99195.19;;;-1.39;88.89
38806;BME280;25635;51.146;17.162;2022-12-11T06:19:18;99201.22;;;-1.37;88.84
38806;BME280;25635;51.146;17.162;2022-12-11T06:21:45;99199.50;;;-1.38;88.77
38806;BME280;25635;51.146;17.162;2022-12-11T06:24:13;99196.52;;;-1.37;88.59
38806;BME280;25635;51.146;17.162;2022-12-11T06:26:39;99199.50;;;-1.38;88.57
38806;BME280;25635;51.146;17.162;2022-12-11T06:29:05;99204.16;;;-1.39;88.37
38806;BME280;25635;51.146;17.162;2022-12-11T06:31:32;99207.97;;;-1.40;88.39
38806;BME280;25635;51.146;17.162;2022-12-11T06:33:58;99215.60;;;-1.44;88.36
38806;BME280;25635;51.146;17.162;2022-12-11T06:36:24;99219.88;;;-1.43;88.56
38806;BME280;25635;51.146;17.162;2022-12-11T06:38:51;99218.59;;;-1.44;88.08
38806;BME280;25635;51.146;17.162;2022-12-11T06:41:17;99217.70;;;-1.45;88.27
38806;BME280;25635;51.146;17.162;2022-12-11T06:43:44;99215.98;;;-1.46;88.39
38806;BME280;25635;51.146;17.162;2022-12-11T06:46:13;99220.30;;;-1.43;88.25
38806;BME280;25635;51.146;17.162;2022-12-11T06:48:45;99231.41;;;-1.44;88.12
38806;BME280;25635;51.146;17.162;2022-12-11T06:51:15;99231.80;;;-1.45;88.21
38806;BME280;25635;51.146;17.162;2022-12-11T06:53:44;99230.13;;;-1.44;88.35
38806;BME280;25635;51.146;17.162;2022-12-11T06:56:17;99224.64;;;-1.40;88.51
38806;BME280;25635;51.146;17.162;2022-12-11T06:58:44;99232.38;;;-1.39;88.35
38806;BME280;25635;51.146;17.162;2022-12-11T07:03:45;99231.52;;;-1.39;88.12
38806;BME280;25635;51.146;17.162;2022-12-11T07:06:11;99227.67;;;-1.39;88.06
38806;BME280;25635;51.146;17.162;2022-12-11T07:08:38;99228.48;;;-1.40;88.00
38806;BME280;25635;51.146;17.162;2022-12-11T07:11:08;99230.61;;;-1.41;88.03
38806;BME280;25635;51.146;17.162;2022-12-11T07:13:36;99232.31;;;-1.42;87.70
38806;BME280;25635;51.146;17.162;2022-12-11T07:16:03;99230.13;;;-1.44;87.68
38806;BME280;25635;51.146;17.162;2022-12-11T07:18:32;99228.80;;;-1.46;87.46
38806;BME280;25635;51.146;17.162;2022-12-11T07:20:58;99229.99;;;-1.49;87.71
38806;BME280;25635;51.146;17.162;2022-12-11T07:23:27;99224.91;;;-1.47;87.71
38806;BME280;25635;51.146;17.162;2022-12-11T07:25:55;99229.17;;;-1.48;87.76
38806;BME280;25635;51.146;17.162;2022-12-11T07:28:23;99234.31;;;-1.48;87.67
38806;BME280;25635;51.146;17.162;2022-12-11T07:30:50;99234.31;;;-1.48;87.74
38806;BME280;25635;51.146;17.162;2022-12-11T07:33:17;99234.35;;;-1.46;87.99
38806;BME280;25635;51.146;17.162;2022-12-11T07:35:43;99226.67;;;-1.45;87.88
38806;BME280;25635;51.146;17.162;2022-12-11T07:38:09;99235.27;;;-1.43;87.74
38806;BME280;25635;51.146;17.162;2022-12-11T07:40:35;99238.73;;;-1.42;87.79
38806;BME280;25635;51.146;17.162;2022-12-11T07:43:01;99237.46;;;-1.40;87.79
38806;BME280;25635;51.146;17.162;2022-12-11T07:45:27;99243.06;;;-1.39;87.66
38806;BME280;25635;51.146;17.162;2022-12-11T07:47:54;99238.31;;;-1.41;87.23
38806;BME280;25635;51.146;17.162;2022-12-11T07:50:20;99234.04;;;-1.41;87.54
38806;BME280;25635;51.146;17.162;2022-12-11T07:52:47;99237.09;;;-1.38;87.50
38806;BME280;25635;51.146;17.162;2022-12-11T07:55:14;99232.80;;;-1.39;86.96
38806;BME280;25635;51.146;17.162;2022-12-11T07:57:40;99232.76;;;-1.41;86.52
38806;BME280;25635;51.146;17.162;2022-12-11T08:00:07;99227.14;;;-1.44;86.38
38806;BME280;25635;51.146;17.162;2022-12-11T08:02:38;99231.36;;;-1.46;86.52
38806;BME280;25635;51.146;17.162;2022-12-11T08:05:12;99237.73;;;-1.47;86.37
38806;BME280;25635;51.146;17.162;2022-12-11T08:07:43;99232.16;;;-1.48;86.38
38806;BME280;25635;51.146;17.162;2022-12-11T08:10:10;99230.84;;;-1.50;86.62
38806;BME280;25635;51.146;17.162;2022-12-11T08:12:36;99235.17;;;-1.47;86.57
38806;BME280;25635;51.146;17.162;2022-12-11T08:15:02;99233.41;;;-1.50;86.60
38806;BME280;25635;51.146;17.162;2022-12-11T08:17:29;99243.19;;;-1.51;86.34
38806;BME280;25635;51.146;17.162;2022-12-11T08:19:55;99242.81;;;-1.49;86.57
38806;BME280;25635;51.146;17.162;2022-12-11T08:22:21;99239.77;;;-1.51;86.55
38806;BME280;25635;51.146;17.162;2022-12-11T08:24:47;99235.92;;;-1.51;86.27
38806;BME280;25635;51.146;17.162;2022-12-11T08:27:13;99237.58;;;-1.53;85.92
38806;BME280;25635;51.146;17.162;2022-12-11T08:29:39;99229.82;;;-1.56;86.15
38806;BME280;25635;51.146;17.162;2022-12-11T08:32:06;99223.36;;;-1.58;86.01
38806;BME280;25635;51.146;17.162;2022-12-11T08:34:32;99227.63;;;-1.58;85.79
38806;BME280;25635;51.146;17.162;2022-12-11T08:36:58;99229.77;;;-1.58;86.29
38806;BME280;25635;51.146;17.162;2022-12-11T08:39:24;99224.27;;;-1.56;86.50
38806;BME280;25635;51.146;17.162;2022-12-11T08:41:51;99229.07;;;-1.52;86.44
38806;BME280;25635;51.146;17.162;2022-12-11T08:44:17;99232.93;;;-1.51;86.58
38806;BME280;25635;51.146;17.162;2022-12-11T08:46:44;99228.75;;;-1.47;86.27
38806;BME280;25635;51.146;17.162;2022-12-11T08:49:10;99229.55;;;-1.50;85.86
38806;BME280;25635;51.146;17.162;2022-12-11T08:51:36;99228.75;;;-1.47;85.89
38806;BME280;25635;51.146;17.162;2022-12-11T08:54:02;99228.31;;;-1.48;85.94
38806;BME280;25635;51.146;17.162;2022-12-11T08:56:29;99226.56;;;-1.49;86.02
38806;BME280;25635;51.146;17.162;2022-12-11T08:59:00;99233.89;;;-1.47;86.14
38806;BME280;25635;51.146;17.162;2022-12-11T09:01:29;99239.02;;;-1.47;85.67
38806;BME280;25635;51.146;17.162;2022-12-11T09:03:56;99241.09;;;-1.50;85.56
38806;BME280;25635;51.146;17.162;2022-12-11T09:06:25;99242.33;;;-1.51;85.46
38806;BME280;25635;51.146;17.162;2022-12-11T09:08:54;99238.91;;;-1.52;85.23
38806;BME280;25635;51.146;17.162;2022-12-11T09:11:23;99236.34;;;-1.52;85.71
38806;BME280;25635;51.146;17.162;2022-12-11T09:13:52;99235.92;;;-1.51;85.60
38806;BME280;25635;51.146;17.162;2022-12-11T09:16:21;99230.35;;;-1.52;85.30
38806;BME280;25635;51.146;17.162;2022-12-11T09:18:51;99228.59;;;-1.53;85.43
38806;BME280;25635;51.146;17.162;2022-12-11T09:21:21;99227.79;;;-1.52;85.76
38806;BME280;25635;51.146;17.162;2022-12-11T09:23:54;99219.19;;;-1.54;85.35
38806;BME280;25635;51.146;17.162;2022-12-11T09:26:22;99219.58;;;-1.55;85.40
38806;BME280;25635;51.146;17.162;2022-12-11T09:28:50;99213.64;;;-1.54;85.63
38806;BME280;25635;51.146;17.162;2022-12-11T09:31:23;99215.41;;;-1.51;85.85
38806;BME280;25635;51.146;17.162;2022-12-11T09:33:54;99205.14;;;-1.51;85.38
38806;BME280;25635;51.146;17.162;2022-12-11T09:36:23;99206.89;;;-1.50;85.31
38806;BME280;25635;51.146;17.162;2022-12-11T09:38:50;99204.70;;;-1.52;85.02
38806;BME280;25635;51.146;17.162;2022-12-11T09:47:00;99196.38;;;-1.61;84.31
38806;BME280;25635;51.146;17.162;2022-12-11T09:49:41;99192.11;;;-1.60;84.99
38806;BME280;25635;51.146;17.162;2022-12-11T09:54:58;99181.85;;;-1.60;84.80
38806;BME280;25635;51.146;17.162;2022-12-11T09:57:33;99184.46;;;-1.59;84.65
38806;BME280;25635;51.146;17.162;2022-12-11T10:02:52;99177.58;;;-1.60;84.68
38806;BME280;25635;51.146;17.162;2022-12-11T10:05:54;99175.97;;;-1.56;84.99
38806;BME280;25635;51.146;17.162;2022-12-11T10:09:06;99167.38;;;-1.57;84.78
38806;BME280;25635;51.146;17.162;2022-12-11T10:14:25;99173.04;;;-1.53;84.68
38806;BME280;25635;51.146;17.162;2022-12-11T10:17:18;99169.20;;;-1.53;84.48
38806;BME280;25635;51.146;17.162;2022-12-11T10:19:45;99173.41;;;-1.56;84.24
38806;BME280;25635;51.146;17.162;2022-12-11T10:22:21;99163.95;;;-1.59;84.62
38806;BME280;25635;51.146;17.162;2022-12-11T10:24:59;99164.81;;;-1.58;84.61
38806;BME280;25635;51.146;17.162;2022-12-11T10:27:32;99152.42;;;-1.57;84.70
38806;BME280;25635;51.146;17.162;2022-12-11T10:30:19;99151.61;;;-1.56;84.54
38806;BME280;25635;51.146;17.162;2022-12-11T10:33:07;99145.20;;;-1.56;83.92
38806;BME280;25635;51.146;17.162;2022-12-11T10:38:30;99144.25;;;-1.60;84.10
38806;BME280;25635;51.146;17.162;2022-12-11T10:41:00;99142.16;;;-1.59;84.38
38806;BME280;25635;51.146;17.162;2022-12-11T10:46:16;99137.03;;;-1.59;84.06
38806;BME280;25635;51.146;17.162;2022-12-11T10:48:50;99138.69;;;-1.61;83.39
38806;BME280;25635;51.146;17.162;2022-12-11T10:51:24;99140.41;;;-1.60;83.62
38806;BME280;25635;51.146;17.162;2022-12-11T10:54:07;99145.58;;;-1.58;83.85
38806;BME280;25635;51.146;17.162;2022-12-11T10:56:36;99137.94;;;-1.55;83.33
38806;BME280;25635;51.146;17.162;2022-12-11T10:59:03;99134.85;;;-1.59;82.52
38806;BME280;25635;51.146;17.162;2022-12-11T11:01:31;99131.90;;;-1.59;83.20
38806;BME280;25635;51.146;17.162;2022-12-11T11:04:05;99133.62;;;-1.58;83.24
38806;BME280;25635;51.146;17.162;2022-12-11T11:06:34;99138.31;;;-1.59;82.37
38806;BME280;25635;51.146;17.162;2022-12-11T11:09:01;99133.57;;;-1.59;82.89
38806;BME280;25635;51.146;17.162;2022-12-11T11:11:33;99126.68;;;-1.62;82.44
38806;BME280;25635;51.146;17.162;2022-12-11T11:16:44;99124.49;;;-1.64;81.87
38806;BME280;25635;51.146;17.162;2022-12-11T11:19:32;99119.74;;;-1.66;81.32
38806;BME280;25635;51.146;17.162;2022-12-11T11:22:13;99115.85;;;-1.68;81.62
38806;BME280;25635;51.146;17.162;2022-12-11T11:24:43;99113.28;;;-1.69;82.11
38806;BME280;25635;51.146;17.162;2022-12-11T11:30:16;99104.31;;;-1.68;82.85
38806;BME280;25635;51.146;17.162;2022-12-11T11:32:38;99095.81;;;-1.67;82.44
38806;BME280;25635;51.146;17.162;2022-12-11T11:37:44;99097.85;;;-1.71;82.57
38806;BME280;25635;51.146;17.162;2022-12-11T11:40:21;99100.85;;;-1.70;82.13
38806;BME280;25635;51.146;17.162;2022-12-11T11:43:16;99099.47;;;-1.74;82.59
38806;BME280;25635;51.146;17.162;2022-12-11T11:52:23;99101.61;;;-1.74;83.04
38806;BME280;25635;51.146;17.162;2022-12-11T11:55:16;99090.16;;;-1.71;83.22
38806;BME280;25635;51.146;17.162;2022-12-11T11:57:56;99085.89;;;-1.70;83.25
38806;BME280;25635;51.146;17.162;2022-12-11T12:00:29;99086.80;;;-1.68;83.02
38806;BME280;25635;51.146;17.162;2022-12-11T12:02:58;99090.58;;;-1.71;82.52
38806;BME280;25635;51.146;17.162;2022-12-11T12:08:33;99084.94;;;-1.74;82.20
38806;BME280;25635;51.146;17.162;2022-12-11T12:22:04;99080.47;;;-1.82;81.39
38806;BME280;25635;51.146;17.162;2022-12-11T12:27:23;99080.52;;;-1.81;82.02
38806;BME280;25635;51.146;17.162;2022-12-11T12:30:06;99077.53;;;-1.80;82.00
38806;BME280;25635;51.146;17.162;2022-12-11T12:35:36;99070.32;;;-1.78;81.92
38806;BME280;25635;51.146;17.162;2022-12-11T12:38:18;99067.36;;;-1.77;81.80
38806;BME280;25635;51.146;17.162;2022-12-11T12:41:18;99072.88;;;-1.78;81.64
38806;BME280;25635;51.146;17.162;2022-12-11T12:44:17;99069.55;;;-1.75;81.70
38806;BME280;25635;51.146;17.162;2022-12-11T12:46:48;99067.80;;;-1.76;81.98
38806;BME280;25635;51.146;17.162;2022-12-11T12:52:25;99074.25;;;-1.75;81.58
38806;BME280;25635;51.146;17.162;2022-12-11T12:54:54;99073.83;;;-1.74;81.20
38806;BME280;25635;51.146;17.162;2022-12-11T13:00:32;99074.59;;;-1.78;81.55
38806;BME280;25635;51.146;17.162;2022-12-11T13:03:20;99070.74;;;-1.78;81.56
38806;BME280;25635;51.146;17.162;2022-12-11T13:06:02;99071.97;;;-1.81;80.94
38806;BME280;25635;51.146;17.162;2022-12-11T13:08:36;99074.86;;;-1.85;80.78
38806;BME280;25635;51.146;17.162;2022-12-11T13:11:09;99081.66;;;-1.87;81.50
38806;BME280;25635;51.146;17.162;2022-12-11T13:18:46;99077.33;;;-1.90;80.93
38806;BME280;25635;51.146;17.162;2022-12-11T13:21:33;99080.80;;;-1.88;81.25
38806;BME280;25635;51.146;17.162;2022-12-11T13:26:48;99079.03;;;-1.90;80.25
38806;BME280;25635;51.146;17.162;2022-12-11T13:29:33;99074.23;;;-1.94;78.90
38806;BME280;25635;51.146;17.162;2022-12-11T13:34:42;99077.51;;;-1.99;80.44
38806;BME280;25635;51.146;17.162;2022-12-11T13:37:23;99082.63;;;-1.99;80.60
38806;BME280;25635;51.146;17.162;2022-12-11T13:40:18;99080.98;;;-1.97;81.15
38806;BME280;25635;51.146;17.162;2022-12-11T13:42:58;99075.42;;;-1.97;79.94
38806;BME280;25635;51.146;17.162;2022-12-11T13:48:14;99079.73;;;-1.96;80.35
38806;BME280;25635;51.146;17.162;2022-12-11T13:50:42;99079.27;;;-1.97;80.52
38806;BME280;25635;51.146;17.162;2022-12-11T13:53:16;99081.35;;;-1.99;79.28
38806;BME280;25635;51.146;17.162;2022-12-11T13:55:44;99078.69;;;-2.04;79.55
38806;BME280;25635;51.146;17.162;2022-12-11T13:58:18;99077.73;;;-2.08;80.10
38806;BME280;25635;51.146;17.162;2022-12-11T14:01:06;99077.30;;;-2.09;80.17
38806;BME280;25635;51.146;17.162;2022-12-11T14:04:06;99083.72;;;-2.07;80.40
38806;BME280;25635;51.146;17.162;2022-12-11T14:06:32;99079.48;;;-2.07;79.47
38806;BME280;25635;51.146;17.162;2022-12-11T14:09:00;99082.86;;;-2.08;80.10
38806;BME280;25635;51.146;17.162;2022-12-11T14:11:36;99082.91;;;-2.06;80.31
38806;BME280;25635;51.146;17.162;2022-12-11T14:14:13;99081.58;;;-2.08;79.64
38806;BME280;25635;51.146;17.162;2022-12-11T14:16:50;99081.14;;;-2.09;80.27
38806;BME280;25635;51.146;17.162;2022-12-11T14:19:19;99087.19;;;-2.05;79.80
38806;BME280;25635;51.146;17.162;2022-12-11T14:21:59;99085.80;;;-2.10;79.38
38806;BME280;25635;51.146;17.162;2022-12-11T14:24:27;99086.59;;;-2.12;78.86
38806;BME280;25635;51.146;17.162;2022-12-11T14:26:55;99082.75;;;-2.12;79.75
38806;BME280;25635;51.146;17.162;2022-12-11T14:29:31;99082.70;;;-2.14;79.17
38806;BME280;25635;51.146;17.162;2022-12-11T14:32:03;99088.63;;;-2.16;79.27
38806;BME280;25635;51.146;17.162;2022-12-11T14:34:36;99087.30;;;-2.18;78.75
38806;BME280;25635;51.146;17.162;2022-12-11T14:37:06;99085.64;;;-2.16;79.73
38806;BME280;25635;51.146;17.162;2022-12-11T14:39:57;99083.12;;;-2.14;79.80
38806;BME280;25635;51.146;17.162;2022-12-11T14:42:35;99081.94;;;-2.11;79.74
38806;BME280;25635;51.146;17.162;2022-12-11T14:45:48;99077.20;;;-2.12;78.97
38806;BME280;25635;51.146;17.162;2022-12-11T14:47:37;99074.64;;;-2.12;79.33